createdAt,value
2023-03-26T00:01:17.419Z,8.00
2023-03-26T00:03:53.404Z,8.10
2023-03-26T00:06:25.241Z,8.10
2023-03-26T00:08:53.134Z,8.10
2023-03-26T00:11:21.964Z,8.10
2023-03-26T00:13:49.355Z,8.10
2023-03-26T00:16:18.355Z,7.90
2023-03-26T00:18:46.072Z,7.80
2023-03-26T00:21:14.947Z,7.80
2023-03-26T00:23:42.248Z,7.80
2023-03-26T00:26:10.652Z,7.80
2023-03-26T00:28:40.355Z,8.00
2023-03-26T00:31:10.735Z,8.00
2023-03-26T00:33:38.166Z,8.10
2023-03-26T00:36:10.830Z,8.10
2023-03-26T00:38:38.810Z,8.00
2023-03-26T00:41:07.993Z,8.00
2023-03-26T00:43:36.110Z,8.10
2023-03-26T00:46:03.346Z,8.20
2023-03-26T00:48:43.940Z,8.30
2023-03-26T00:51:15.221Z,8.30
2023-03-26T00:53:43.229Z,8.50
2023-03-26T00:56:10.117Z,8.50
2023-03-26T00:58:37.570Z,8.30
2023-03-26T01:01:10.669Z,8.40
2023-03-26T01:03:38.656Z,8.40
2023-03-26T01:06:12.693Z,8.40
2023-03-26T01:08:48.658Z,8.30
2023-03-26T01:11:21.814Z,8.40
2023-03-26T01:14:07.142Z,8.30
2023-03-26T01:16:42.488Z,8.20
2023-03-26T01:19:18.274Z,8.30
2023-03-26T01:21:47.325Z,8.40
2023-03-26T01:24:14.023Z,8.20
2023-03-26T01:26:43.499Z,8.00
2023-03-26T01:29:37.525Z,8.00
2023-03-26T01:32:37.771Z,8.20
2023-03-26T01:35:45.799Z,8.00
2023-03-26T01:38:36.662Z,7.80
2023-03-26T01:41:36.577Z,7.70
2023-03-26T01:44:20.701Z,7.70
2023-03-26T01:46:48.458Z,7.60
2023-03-26T01:49:15.255Z,7.50
2023-03-26T01:51:42.668Z,7.50
2023-03-26T01:54:18.449Z,7.70
2023-03-26T01:56:56.977Z,7.60
2023-03-26T01:59:29.418Z,7.50
2023-03-26T02:02:12.591Z,7.50
2023-03-26T02:05:01.473Z,7.50
2023-03-26T02:07:39.548Z,7.40
2023-03-26T02:10:30.584Z,7.30
2023-03-26T02:12:59.130Z,7.30
2023-03-26T02:15:26.249Z,7.20
2023-03-26T02:17:53.976Z,7.20
2023-03-26T02:20:21.671Z,7.30
2023-03-26T02:22:48.825Z,7.50
2023-03-26T02:25:21.014Z,7.50
2023-03-26T02:27:51.403Z,7.30
2023-03-26T02:30:25.721Z,7.20
2023-03-26T02:32:59.011Z,7.30
2023-03-26T02:35:28.571Z,7.40
2023-03-26T02:37:59.019Z,7.30
2023-03-26T02:40:26.092Z,7.20
2023-03-26T02:42:53.070Z,7.10
2023-03-26T02:45:19.935Z,7.10
2023-03-26T02:47:50.998Z,7.10
2023-03-26T02:50:54.599Z,7.10
2023-03-26T02:53:48.664Z,7.00
2023-03-26T02:56:34.834Z,7.00
2023-03-26T02:59:20.175Z,6.90
2023-03-26T03:01:56.096Z,7.00
2023-03-26T03:04:22.964Z,6.90
2023-03-26T03:06:52.956Z,7.10
2023-03-26T03:09:20.148Z,7.00
2023-03-26T03:12:09.667Z,6.90
2023-03-26T03:14:37.677Z,7.00
2023-03-26T03:17:04.345Z,6.90
2023-03-26T03:19:31.334Z,7.00
2023-03-26T03:21:58.174Z,6.90
2023-03-26T03:24:26.945Z,6.60
2023-03-26T03:26:56.714Z,6.60
2023-03-26T03:29:34.313Z,6.50
2023-03-26T03:32:22.502Z,6.50
2023-03-26T03:34:51.047Z,6.50
2023-03-26T03:37:19.760Z,6.50
2023-03-26T03:39:54.435Z,6.60
2023-03-26T03:42:22.991Z,6.40
2023-03-26T03:44:52.999Z,6.50
2023-03-26T03:47:44.471Z,6.40
2023-03-26T03:50:12.666Z,6.30
2023-03-26T03:52:48.645Z,6.30
2023-03-26T03:55:17.214Z,6.50
2023-03-26T03:57:52.407Z,6.50
2023-03-26T04:00:22.513Z,6.50
2023-03-26T04:03:06.430Z,6.40
2023-03-26T04:05:34.055Z,6.30
2023-03-26T04:08:00.816Z,6.40
2023-03-26T04:10:49.955Z,6.40
2023-03-26T04:13:37.110Z,6.60
2023-03-26T04:16:22.482Z,6.60
2023-03-26T04:18:49.426Z,6.80
2023-03-26T04:21:16.206Z,6.80
2023-03-26T04:23:48.004Z,6.90
2023-03-26T04:26:30.937Z,6.90
2023-03-26T04:29:06.430Z,7.00
2023-03-26T04:31:36.067Z,6.90
2023-03-26T04:34:13.388Z,7.00
2023-03-26T04:36:51.403Z,6.80
2023-03-26T04:39:19.551Z,6.70
2023-03-26T04:42:04.820Z,6.60
2023-03-26T04:44:45.055Z,6.60
2023-03-26T04:47:14.109Z,6.80
2023-03-26T04:49:47.250Z,6.90
2023-03-26T04:52:15.621Z,6.80
2023-03-26T04:55:01.760Z,6.80
2023-03-26T04:57:43.591Z,6.80
2023-03-26T05:00:20.293Z,6.90
2023-03-26T05:02:53.879Z,6.80
2023-03-26T05:05:20.840Z,6.70
2023-03-26T05:07:49.214Z,6.80
2023-03-26T05:10:20.390Z,6.90
2023-03-26T05:13:02.132Z,7.10
2023-03-26T05:15:35.575Z,7.00
2023-03-26T05:18:12.767Z,7.10
2023-03-26T05:20:43.454Z,7.00
2023-03-26T05:23:11.083Z,7.10
2023-03-26T05:25:41.601Z,7.00
2023-03-26T05:28:16.042Z,6.70
2023-03-26T05:30:58.854Z,6.70
2023-03-26T05:33:28.983Z,6.60
2023-03-26T05:36:09.755Z,6.70
2023-03-26T05:38:36.955Z,7.00
2023-03-26T05:41:08.874Z,6.90
2023-03-26T05:43:38.356Z,6.90
2023-03-26T05:46:31.830Z,6.80
2023-03-26T05:48:59.906Z,6.80
2023-03-26T05:51:29.233Z,7.00
2023-03-26T05:54:18.758Z,6.80
2023-03-26T05:57:08.742Z,6.90
2023-03-26T05:59:56.822Z,7.00
2023-03-26T06:02:42.747Z,7.20
2023-03-26T06:05:37.481Z,7.00
2023-03-26T06:08:19.438Z,7.20
2023-03-26T06:10:58.573Z,7.00
2023-03-26T06:13:25.665Z,7.10
2023-03-26T06:15:54.032Z,7.10
2023-03-26T06:18:26.460Z,7.10
2023-03-26T06:21:15.460Z,7.20
2023-03-26T06:23:52.163Z,7.20
2023-03-26T06:26:52.269Z,7.30
2023-03-26T06:29:34.402Z,7.40
2023-03-26T06:32:27.352Z,7.40
2023-03-26T06:35:00.210Z,7.50
2023-03-26T06:37:26.995Z,7.60
2023-03-26T06:39:58.052Z,7.40
2023-03-26T06:43:08.021Z,7.40
2023-03-26T06:45:51.689Z,7.50
2023-03-26T06:48:37.092Z,7.40
2023-03-26T06:51:27.508Z,7.40
2023-03-26T06:54:09.392Z,7.30
2023-03-26T06:56:57.131Z,7.40
2023-03-26T06:59:55.787Z,7.50
2023-03-26T07:02:46.005Z,7.50
2023-03-26T07:05:41.922Z,7.60
2023-03-26T07:08:34.386Z,7.60
2023-03-26T07:11:30.581Z,7.50
2023-03-26T07:14:16.082Z,7.60
2023-03-26T07:16:49.998Z,7.50
2023-03-26T07:19:39.309Z,7.60
2023-03-26T07:22:06.607Z,7.80
2023-03-26T07:24:52.362Z,7.90
2023-03-26T07:28:17.630Z,8.00
2023-03-26T07:31:07.790Z,8.10
2023-03-26T07:34:07.664Z,8.00
2023-03-26T07:37:21.262Z,8.10
2023-03-26T07:40:27.170Z,8.40
2023-03-26T07:43:51.643Z,8.50
2023-03-26T07:46:41.654Z,8.50
2023-03-26T07:49:23.632Z,8.50
2023-03-26T07:52:18.919Z,8.70
2023-03-26T07:54:51.959Z,8.80
2023-03-26T07:58:23.711Z,8.60
2023-03-26T08:01:23.912Z,8.50
2023-03-26T08:04:24.348Z,8.70
2023-03-26T08:07:35.359Z,8.70
2023-03-26T08:10:30.393Z,8.60
2023-03-26T08:13:26.164Z,8.70
2023-03-26T08:16:23.121Z,8.80
2023-03-26T08:19:26.758Z,9.00
2023-03-26T08:22:11.094Z,9.00
2023-03-26T08:25:25.526Z,8.90
2023-03-26T08:28:21.639Z,8.90
2023-03-26T08:30:48.459Z,9.00
2023-03-26T08:33:19.122Z,9.10
2023-03-26T08:35:46.446Z,8.90
2023-03-26T08:38:18.474Z,8.90
2023-03-26T08:41:07.015Z,8.80
2023-03-26T08:44:13.703Z,8.80
2023-03-26T08:47:08.356Z,8.70
2023-03-26T08:50:14.084Z,8.60
2023-03-26T08:53:02.410Z,8.70
2023-03-26T08:55:56.108Z,8.80
2023-03-26T08:58:44.065Z,8.90
2023-03-26T09:01:26.369Z,9.00
2023-03-26T09:04:29.938Z,9.20
2023-03-26T09:07:06.888Z,9.40
2023-03-26T09:10:15.976Z,9.50
2023-03-26T09:12:57.917Z,9.30
2023-03-26T09:15:39.371Z,9.00
2023-03-26T09:18:35.321Z,9.10
2023-03-26T09:21:29.234Z,9.10
2023-03-26T09:24:40.964Z,9.10
2023-03-26T09:27:35.072Z,9.20
2023-03-26T09:30:31.624Z,9.50
2023-03-26T09:33:11.902Z,9.60
2023-03-26T09:35:44.333Z,9.70
2023-03-26T09:38:29.447Z,9.80
2023-03-26T09:41:15.436Z,9.70
2023-03-26T09:44:08.363Z,9.60
2023-03-26T09:46:58.287Z,9.40
2023-03-26T09:49:47.278Z,9.20
2023-03-26T09:52:31.732Z,9.30
2023-03-26T09:55:29.535Z,9.30
2023-03-26T09:58:07.600Z,9.50
2023-03-26T10:00:53.202Z,9.50
2023-03-26T10:03:34.703Z,9.40
2023-03-26T10:06:51.395Z,9.30
2023-03-26T10:09:33.465Z,9.40
2023-03-26T10:12:21.352Z,9.60
2023-03-26T10:15:00.239Z,9.50
2023-03-26T10:18:02.515Z,9.00
2023-03-26T10:21:15.768Z,8.80
2023-03-26T10:23:52.886Z,8.90
2023-03-26T10:26:32.139Z,9.00
2023-03-26T10:29:25.998Z,9.40
2023-03-26T10:32:17.683Z,9.60
2023-03-26T10:35:02.428Z,9.50
2023-03-26T10:38:08.376Z,9.30
2023-03-26T10:41:10.331Z,9.20
2023-03-26T10:44:08.747Z,9.40
2023-03-26T10:46:56.744Z,9.50
2023-03-26T10:49:49.792Z,9.50
2023-03-26T10:52:22.295Z,9.60
2023-03-26T10:55:02.790Z,10.10
2023-03-26T10:57:52.687Z,10.80
2023-03-26T11:00:25.615Z,12.30
2023-03-26T11:03:17.296Z,14.00
2023-03-26T11:05:49.558Z,15.60
2023-03-26T11:08:43.691Z,16.90
2023-03-26T11:11:33.133Z,18.10
2023-03-26T11:14:16.832Z,19.00
2023-03-26T11:17:39.612Z,18.50
2023-03-26T11:20:24.756Z,17.90
2023-03-26T11:23:06.908Z,17.70
2023-03-26T11:25:57.064Z,16.20
2023-03-26T11:28:37.962Z,15.30
2023-03-26T11:31:27.839Z,15.30
2023-03-26T11:34:00.896Z,15.70
2023-03-26T11:36:33.358Z,15.80
2023-03-26T11:39:04.531Z,15.90
2023-03-26T11:41:32.886Z,15.50
2023-03-26T11:44:28.660Z,14.90
2023-03-26T11:47:04.360Z,14.10
2023-03-26T11:49:31.824Z,13.50
2023-03-26T11:51:59.121Z,13.30
2023-03-26T11:54:26.301Z,12.90
2023-03-26T11:57:05.316Z,12.60
2023-03-26T11:59:53.062Z,12.40
2023-03-26T12:02:34.054Z,12.30
2023-03-26T12:05:11.973Z,12.20
2023-03-26T12:07:49.405Z,11.90
2023-03-26T12:10:39.750Z,11.80
2023-03-26T12:13:21.221Z,11.80
2023-03-26T12:15:48.052Z,11.80
2023-03-26T12:18:24.751Z,11.80
2023-03-26T12:21:08.360Z,11.60
2023-03-26T12:23:50.516Z,11.60
2023-03-26T12:26:34.088Z,11.20
2023-03-26T12:29:10.211Z,11.00
2023-03-26T12:32:07.589Z,10.90
2023-03-26T12:34:36.050Z,11.40
2023-03-26T12:37:05.131Z,11.80
2023-03-26T12:40:07.305Z,12.30
2023-03-26T12:44:47.302Z,12.80
2023-03-26T12:45:23.732Z,13.00
2023-03-26T12:48:00.200Z,13.30
2023-03-26T12:51:00.983Z,12.90
2023-03-26T12:53:40.404Z,13.10
2023-03-26T12:56:19.830Z,13.30
2023-03-26T12:58:55.767Z,12.90
2023-03-26T13:01:42.935Z,13.20
2023-03-26T13:04:28.701Z,13.00
2023-03-26T13:07:04.362Z,12.90
2023-03-26T13:09:48.041Z,13.20
2023-03-26T13:12:38.208Z,13.70
2023-03-26T13:15:17.796Z,13.60
2023-03-26T13:17:50.763Z,13.70
2023-03-26T13:20:47.074Z,13.50
2023-03-26T13:23:27.605Z,13.40
2023-03-26T13:26:17.957Z,12.90
2023-03-26T13:28:52.786Z,13.00
2023-03-26T13:31:45.141Z,12.70
2023-03-26T13:34:53.870Z,12.80
2023-03-26T13:37:40.817Z,13.00
2023-03-26T13:40:10.289Z,13.00
2023-03-26T13:42:46.761Z,12.90
2023-03-26T13:45:44.316Z,13.00
2023-03-26T13:48:18.571Z,13.20
2023-03-26T13:50:53.688Z,13.40
2023-03-26T13:53:37.376Z,13.00
2023-03-26T13:56:06.186Z,13.10
2023-03-26T13:58:47.935Z,13.10
2023-03-26T14:01:19.393Z,12.90
2023-03-26T14:04:01.083Z,13.30
2023-03-26T14:06:30.721Z,13.60
2023-03-26T14:09:10.286Z,13.50
2023-03-26T14:11:57.655Z,13.10
2023-03-26T14:14:44.118Z,13.30
2023-03-26T14:17:19.727Z,13.30
2023-03-26T14:20:06.292Z,12.80
2023-03-26T14:22:38.536Z,12.80
2023-03-26T14:25:39.410Z,12.70
2023-03-26T14:28:41.271Z,13.20
2023-03-26T14:31:28.950Z,13.00
2023-03-26T14:34:31.069Z,12.40
2023-03-26T14:37:09.773Z,12.50
2023-03-26T14:39:58.206Z,12.30
2023-03-26T14:42:38.297Z,12.30
2023-03-26T14:45:38.984Z,12.30
2023-03-26T14:48:14.582Z,12.00
2023-03-26T14:51:09.211Z,11.80
2023-03-26T14:53:44.543Z,11.60
2023-03-26T14:56:19.888Z,11.50
2023-03-26T14:59:11.293Z,11.60
2023-03-26T15:02:15.581Z,11.80
2023-03-26T15:05:11.340Z,11.70
2023-03-26T15:08:11.346Z,11.70
2023-03-26T15:11:02.838Z,11.50
2023-03-26T15:14:11.027Z,10.80
2023-03-26T15:16:53.200Z,10.20
2023-03-26T15:20:00.398Z,9.90
2023-03-26T15:23:04.486Z,9.90
2023-03-26T15:25:48.927Z,9.70
2023-03-26T15:28:52.410Z,9.10
2023-03-26T15:31:19.433Z,8.80
2023-03-26T15:34:19.949Z,8.70
2023-03-26T15:37:17.624Z,8.60
2023-03-26T15:40:09.770Z,8.50
2023-03-26T15:43:05.984Z,8.40
2023-03-26T15:45:38.015Z,8.50
2023-03-26T15:48:13.791Z,8.20
2023-03-26T15:50:51.211Z,7.90
2023-03-26T15:53:25.362Z,7.80
2023-03-26T15:56:00.588Z,7.80
2023-03-26T15:58:35.566Z,7.90
2023-03-26T16:01:42.516Z,7.80
2023-03-26T16:04:19.686Z,7.60
2023-03-26T16:07:24.187Z,7.70
2023-03-26T16:10:12.481Z,7.40
2023-03-26T16:12:56.625Z,7.50
2023-03-26T16:15:29.787Z,7.40
2023-03-26T16:18:12.235Z,7.70
2023-03-26T16:20:50.648Z,7.90
2023-03-26T16:23:27.300Z,7.90
2023-03-26T16:26:05.912Z,7.80
2023-03-26T16:28:42.519Z,7.70
2023-03-26T16:31:36.048Z,7.80
2023-03-26T16:34:05.254Z,7.80
2023-03-26T16:36:36.806Z,7.60
2023-03-26T16:39:07.571Z,7.70
2023-03-26T16:41:45.192Z,7.70
2023-03-26T16:44:21.533Z,7.60
2023-03-26T16:46:54.696Z,7.20
2023-03-26T16:50:08.946Z,7.20
2023-03-26T16:52:56.537Z,7.50
2023-03-26T16:55:34.439Z,7.30
2023-03-26T16:58:45.323Z,7.30
2023-03-26T17:01:30.296Z,7.50
2023-03-26T17:04:17.060Z,7.50
2023-03-26T17:06:45.711Z,7.30
2023-03-26T17:09:44.082Z,7.20
2023-03-26T17:12:29.167Z,7.40
2023-03-26T17:15:17.674Z,7.20
2023-03-26T17:17:53.024Z,7.00
2023-03-26T17:20:37.473Z,7.00
2023-03-26T17:23:27.132Z,7.10
2023-03-26T17:26:22.665Z,6.80
2023-03-26T17:29:14.579Z,6.40
2023-03-26T17:31:49.232Z,6.00
2023-03-26T17:34:37.878Z,6.30
2023-03-26T17:37:32.158Z,6.30
2023-03-26T17:40:02.162Z,6.50
2023-03-26T17:42:32.730Z,6.40
2023-03-26T17:45:04.748Z,6.50
2023-03-26T17:47:41.202Z,6.60
2023-03-26T17:50:15.812Z,6.90
2023-03-26T17:52:55.706Z,7.00
2023-03-26T17:55:31.096Z,6.90
2023-03-26T17:58:03.143Z,6.80
2023-03-26T18:00:35.864Z,6.80
2023-03-26T18:03:29.543Z,6.70
2023-03-26T18:06:06.829Z,6.60
2023-03-26T18:09:07.654Z,6.60
2023-03-26T18:11:42.350Z,6.60
2023-03-26T18:14:23.909Z,6.80
2023-03-26T18:16:55.922Z,6.80
2023-03-26T18:19:23.419Z,7.00
2023-03-26T18:21:52.604Z,6.90
2023-03-26T18:24:29.899Z,6.60
2023-03-26T18:27:01.619Z,6.70
2023-03-26T18:29:36.779Z,6.70
2023-03-26T18:32:26.066Z,6.60
2023-03-26T18:35:16.941Z,6.50
2023-03-26T18:37:45.943Z,6.50
2023-03-26T18:40:19.203Z,6.80
2023-03-26T18:42:52.603Z,6.80
2023-03-26T18:45:27.087Z,6.90
2023-03-26T18:47:59.681Z,7.20
2023-03-26T18:50:37.314Z,7.20
2023-03-26T18:53:06.651Z,7.20
2023-03-26T18:55:39.426Z,7.20
2023-03-26T18:58:22.399Z,7.30
2023-03-26T19:00:52.820Z,7.30
2023-03-26T19:03:22.412Z,7.10
2023-03-26T19:05:50.787Z,7.00
2023-03-26T19:08:18.239Z,6.90
2023-03-26T19:10:47.993Z,6.90
2023-03-26T19:13:15.399Z,7.10
2023-03-26T19:15:45.275Z,7.10
2023-03-26T19:18:18.105Z,7.30
2023-03-26T19:20:50.774Z,7.50
2023-03-26T19:23:24.945Z,7.60
2023-03-26T19:25:54.787Z,7.50
2023-03-26T19:28:28.830Z,7.60
2023-03-26T19:30:58.399Z,7.60
2023-03-26T19:33:33.900Z,7.60
2023-03-26T19:36:23.651Z,7.50
2023-03-26T19:38:53.889Z,7.40
2023-03-26T19:41:33.221Z,7.40
2023-03-26T19:44:02.136Z,7.50
2023-03-26T19:46:33.679Z,7.60
2023-03-26T19:49:00.544Z,7.40
2023-03-26T19:51:37.683Z,7.30
2023-03-26T19:54:13.866Z,7.50
2023-03-26T19:56:40.616Z,7.40
2023-03-26T19:59:07.669Z,7.30
2023-03-26T20:01:34.721Z,7.10
2023-03-26T20:04:05.022Z,7.10
2023-03-26T20:06:42.369Z,7.10
2023-03-26T20:09:11.207Z,7.20
2023-03-26T20:11:39.609Z,7.20
2023-03-26T20:14:21.516Z,7.10
2023-03-26T20:16:48.871Z,7.20
2023-03-26T20:19:16.865Z,7.20
2023-03-26T20:21:44.734Z,7.30
2023-03-26T20:24:17.437Z,7.20
2023-03-26T20:26:45.591Z,7.30
2023-03-26T20:29:13.913Z,7.20
2023-03-26T20:31:41.947Z,7.00
2023-03-26T20:34:21.409Z,6.90
2023-03-26T20:36:54.103Z,6.90
2023-03-26T20:39:24.916Z,6.80
2023-03-26T20:41:53.383Z,6.70
2023-03-26T20:44:27.119Z,6.70
2023-03-26T20:46:56.325Z,6.60
2023-03-26T20:49:23.147Z,6.70
2023-03-26T20:51:49.996Z,6.60
2023-03-26T20:54:25.425Z,6.40
2023-03-26T20:56:56.656Z,6.40
2023-03-26T20:59:27.402Z,6.40
2023-03-26T21:01:59.815Z,6.40
2023-03-26T21:04:29.429Z,6.60
2023-03-26T21:07:07.058Z,6.70
2023-03-26T21:09:34.692Z,6.60
2023-03-26T21:12:18.541Z,6.40
2023-03-26T21:14:46.241Z,6.30
2023-03-26T21:17:18.807Z,6.20
2023-03-26T21:19:47.054Z,6.40
2023-03-26T21:22:41.142Z,6.50
2023-03-26T21:25:36.169Z,6.30
2023-03-26T21:28:08.838Z,6.30
2023-03-26T21:30:35.814Z,6.00
2023-03-26T21:33:05.144Z,6.00
2023-03-26T21:35:34.465Z,6.10
2023-03-26T21:38:04.342Z,6.50
2023-03-26T21:40:31.465Z,6.80
2023-03-26T21:42:58.575Z,6.70
2023-03-26T21:45:26.578Z,6.70
2023-03-26T21:47:53.605Z,6.80
2023-03-26T21:50:22.797Z,6.60
2023-03-26T21:52:51.329Z,6.50
2023-03-26T21:55:20.984Z,6.40
2023-03-26T21:58:04.614Z,6.30
2023-03-26T22:00:43.712Z,6.40
2023-03-26T22:03:43.083Z,6.30
2023-03-26T22:06:20.857Z,6.10
2023-03-26T22:08:47.819Z,6.10
2023-03-26T22:11:14.511Z,6.30
2023-03-26T22:13:41.267Z,6.50
2023-03-26T22:16:10.640Z,6.70
2023-03-26T22:18:37.653Z,6.70
2023-03-26T22:21:05.890Z,6.80
2023-03-26T22:23:37.036Z,6.80
2023-03-26T22:26:05.011Z,6.70
2023-03-26T22:28:31.881Z,6.70
2023-03-26T22:30:59.560Z,6.60
2023-03-26T22:33:26.918Z,6.90
2023-03-26T22:35:55.902Z,6.90
2023-03-26T22:38:23.010Z,6.90
2023-03-26T22:40:57.799Z,7.00
2023-03-26T22:43:24.850Z,7.00
2023-03-26T22:45:53.706Z,7.10
2023-03-26T22:48:23.353Z,7.10
2023-03-26T22:51:00.908Z,6.90
2023-03-26T22:53:28.403Z,6.80
2023-03-26T22:55:55.201Z,6.80
2023-03-26T22:58:22.799Z,6.90
2023-03-26T23:00:52.080Z,6.80
2023-03-26T23:03:21.924Z,7.10
2023-03-26T23:06:06.187Z,7.20
2023-03-26T23:08:34.219Z,7.10
2023-03-26T23:11:01.496Z,7.00
2023-03-26T23:13:28.251Z,7.00
2023-03-26T23:15:57.025Z,7.00
2023-03-26T23:18:24.425Z,7.10
2023-03-26T23:20:52.832Z,7.10
2023-03-26T23:23:27.321Z,7.10
2023-03-26T23:25:55.017Z,7.20
2023-03-26T23:28:23.921Z,7.30
2023-03-26T23:30:52.249Z,7.30
2023-03-26T23:33:26.393Z,7.40
2023-03-26T23:35:59.729Z,7.40
2023-03-26T23:38:44.005Z,7.60
2023-03-26T23:41:17.741Z,7.60
2023-03-26T23:43:53.755Z,7.70
2023-03-26T23:46:23.406Z,7.70
2023-03-26T23:48:51.164Z,7.60
2023-03-26T23:51:20.177Z,7.60
2023-03-26T23:53:49.021Z,7.50
2023-03-26T23:56:16.273Z,7.40
2023-03-26T23:58:43.432Z,7.50
